sensor_id;sensor_type;location;lat;lon;timestamp;P1;durP1;ratioP1;P2;durP2;ratioP2
45842;SDS011;31563;51.744;8.252;2023-07-16T00:02:09;1.00;;;0.73;;
45842;SDS011;31563;51.744;8.252;2023-07-16T00:04:38;1.90;;;0.80;;
45842;SDS011;31563;51.744;8.252;2023-07-16T00:07:07;1.30;;;0.80;;
45842;SDS011;31563;51.744;8.252;2023-07-16T00:09:36;1.10;;;0.90;;
45842;SDS011;31563;51.744;8.252;2023-07-16T00:12:05;1.00;;;0.68;;
45842;SDS011;31563;51.744;8.252;2023-07-16T00:14:35;1.30;;;1.02;;
45842;SDS011;31563;51.744;8.252;2023-07-16T00:17:03;1.10;;;0.70;;
45842;SDS011;31563;51.744;8.252;2023-07-16T00:19:31;1.63;;;0.88;;
45842;SDS011;31563;51.744;8.252;2023-07-16T00:22:00;1.33;;;0.73;;
45842;SDS011;31563;51.744;8.252;2023-07-16T00:24:29;2.05;;;0.82;;
45842;SDS011;31563;51.744;8.252;2023-07-16T00:29:25;1.05;;;0.80;;
45842;SDS011;31563;51.744;8.252;2023-07-16T00:31:54;1.00;;;0.70;;
45842;SDS011;31563;51.744;8.252;2023-07-16T00:34:22;1.13;;;0.60;;
45842;SDS011;31563;51.744;8.252;2023-07-16T00:36:50;1.23;;;0.70;;
45842;SDS011;31563;51.744;8.252;2023-07-16T00:39:19;1.25;;;0.98;;
45842;SDS011;31563;51.744;8.252;2023-07-16T00:41:48;1.15;;;0.85;;
45842;SDS011;31563;51.744;8.252;2023-07-16T00:46:44;1.20;;;0.80;;
45842;SDS011;31563;51.744;8.252;2023-07-16T00:49:13;1.85;;;0.98;;
45842;SDS011;31563;51.744;8.252;2023-07-16T00:51:41;1.38;;;0.70;;
45842;SDS011;31563;51.744;8.252;2023-07-16T00:54:10;1.93;;;0.70;;
45842;SDS011;31563;51.744;8.252;2023-07-16T00:56:39;1.27;;;1.00;;
45842;SDS011;31563;51.744;8.252;2023-07-16T00:59:08;1.00;;;0.80;;
45842;SDS011;31563;51.744;8.252;2023-07-16T01:04:06;0.90;;;0.65;;
45842;SDS011;31563;51.744;8.252;2023-07-16T01:06:35;1.05;;;0.60;;
45842;SDS011;31563;51.744;8.252;2023-07-16T01:09:59;1.45;;;0.80;;
45842;SDS011;31563;51.744;8.252;2023-07-16T01:12:28;1.20;;;0.70;;
45842;SDS011;31563;51.744;8.252;2023-07-16T01:14:59;1.30;;;0.60;;
45842;SDS011;31563;51.744;8.252;2023-07-16T01:17:28;1.27;;;0.65;;
45842;SDS011;31563;51.744;8.252;2023-07-16T01:19:56;1.02;;;0.70;;
45842;SDS011;31563;51.744;8.252;2023-07-16T01:22:30;0.90;;;0.70;;
45842;SDS011;31563;51.744;8.252;2023-07-16T01:28:16;1.20;;;0.63;;
45842;SDS011;31563;51.744;8.252;2023-07-16T01:30:59;1.75;;;0.80;;
45842;SDS011;31563;51.744;8.252;2023-07-16T01:33:28;1.40;;;0.77;;
45842;SDS011;31563;51.744;8.252;2023-07-16T01:35:57;1.55;;;0.80;;
45842;SDS011;31563;51.744;8.252;2023-07-16T01:38:26;1.33;;;0.70;;
45842;SDS011;31563;51.744;8.252;2023-07-16T01:40:55;1.27;;;0.50;;
45842;SDS011;31563;51.744;8.252;2023-07-16T01:43:23;0.90;;;0.70;;
45842;SDS011;31563;51.744;8.252;2023-07-16T01:45:51;1.05;;;0.75;;
45842;SDS011;31563;51.744;8.252;2023-07-16T01:48:24;1.00;;;0.65;;
45842;SDS011;31563;51.744;8.252;2023-07-16T01:50:58;1.00;;;0.70;;
45842;SDS011;31563;51.744;8.252;2023-07-16T01:53:26;0.90;;;0.60;;
45842;SDS011;31563;51.744;8.252;2023-07-16T01:55:54;1.83;;;0.80;;
45842;SDS011;31563;51.744;8.252;2023-07-16T01:58:23;1.23;;;0.75;;
45842;SDS011;31563;51.744;8.252;2023-07-16T02:00:51;2.30;;;0.73;;
45842;SDS011;31563;51.744;8.252;2023-07-16T02:03:19;1.05;;;0.82;;
45842;SDS011;31563;51.744;8.252;2023-07-16T02:05:49;1.08;;;0.70;;
45842;SDS011;31563;51.744;8.252;2023-07-16T02:08:17;0.95;;;0.60;;
45842;SDS011;31563;51.744;8.252;2023-07-16T02:10:46;1.67;;;0.82;;
45842;SDS011;31563;51.744;8.252;2023-07-16T02:13:15;0.95;;;0.70;;
45842;SDS011;31563;51.744;8.252;2023-07-16T02:15:43;1.00;;;0.60;;
45842;SDS011;31563;51.744;8.252;2023-07-16T02:18:12;1.10;;;0.70;;
45842;SDS011;31563;51.744;8.252;2023-07-16T02:20:41;1.50;;;0.85;;
45842;SDS011;31563;51.744;8.252;2023-07-16T02:25:40;1.40;;;0.68;;
45842;SDS011;31563;51.744;8.252;2023-07-16T02:28:08;0.88;;;0.68;;
45842;SDS011;31563;51.744;8.252;2023-07-16T02:30:36;0.88;;;0.60;;
45842;SDS011;31563;51.744;8.252;2023-07-16T02:33:05;1.25;;;0.73;;
45842;SDS011;31563;51.744;8.252;2023-07-16T02:35:33;0.80;;;0.60;;
45842;SDS011;31563;51.744;8.252;2023-07-16T02:38:01;1.10;;;0.60;;
45842;SDS011;31563;51.744;8.252;2023-07-16T02:40:31;0.80;;;0.50;;
45842;SDS011;31563;51.744;8.252;2023-07-16T02:42:59;0.85;;;0.60;;
45842;SDS011;31563;51.744;8.252;2023-07-16T02:45:27;1.17;;;0.60;;
45842;SDS011;31563;51.744;8.252;2023-07-16T02:47:55;0.60;;;0.40;;
45842;SDS011;31563;51.744;8.252;2023-07-16T02:50:24;1.40;;;0.57;;
45842;SDS011;31563;51.744;8.252;2023-07-16T02:52:52;0.90;;;0.50;;
45842;SDS011;31563;51.744;8.252;2023-07-16T02:55:20;0.75;;;0.60;;
45842;SDS011;31563;51.744;8.252;2023-07-16T02:57:50;0.88;;;0.60;;
45842;SDS011;31563;51.744;8.252;2023-07-16T03:00:18;0.93;;;0.65;;
45842;SDS011;31563;51.744;8.252;2023-07-16T03:02:46;0.55;;;0.50;;
45842;SDS011;31563;51.744;8.252;2023-07-16T03:05:15;1.05;;;0.68;;
45842;SDS011;31563;51.744;8.252;2023-07-16T03:07:44;1.13;;;0.70;;
45842;SDS011;31563;51.744;8.252;2023-07-16T03:10:12;1.27;;;0.68;;
45842;SDS011;31563;51.744;8.252;2023-07-16T03:12:40;1.65;;;0.60;;
45842;SDS011;31563;51.744;8.252;2023-07-16T03:15:10;1.35;;;0.77;;
45842;SDS011;31563;51.744;8.252;2023-07-16T03:17:38;1.00;;;0.85;;
45842;SDS011;31563;51.744;8.252;2023-07-16T03:20:07;1.15;;;0.60;;
45842;SDS011;31563;51.744;8.252;2023-07-16T03:25:04;1.10;;;0.60;;
45842;SDS011;31563;51.744;8.252;2023-07-16T03:30:02;1.48;;;0.70;;
45842;SDS011;31563;51.744;8.252;2023-07-16T03:32:32;0.63;;;0.50;;
45842;SDS011;31563;51.744;8.252;2023-07-16T03:35:17;1.10;;;0.60;;
45842;SDS011;31563;51.744;8.252;2023-07-16T03:37:47;0.90;;;0.50;;
45842;SDS011;31563;51.744;8.252;2023-07-16T03:40:16;1.10;;;0.60;;
45842;SDS011;31563;51.744;8.252;2023-07-16T03:42:45;1.00;;;0.70;;
45842;SDS011;31563;51.744;8.252;2023-07-16T03:45:13;0.95;;;0.60;;
45842;SDS011;31563;51.744;8.252;2023-07-16T03:47:43;0.93;;;0.60;;
45842;SDS011;31563;51.744;8.252;2023-07-16T03:50:12;1.35;;;0.70;;
45842;SDS011;31563;51.744;8.252;2023-07-16T03:52:40;1.20;;;0.73;;
45842;SDS011;31563;51.744;8.252;2023-07-16T03:55:08;0.88;;;0.60;;
45842;SDS011;31563;51.744;8.252;2023-07-16T03:57:37;0.70;;;0.60;;
45842;SDS011;31563;51.744;8.252;2023-07-16T04:00:06;0.90;;;0.52;;
45842;SDS011;31563;51.744;8.252;2023-07-16T04:02:36;0.70;;;0.60;;
45842;SDS011;31563;51.744;8.252;2023-07-16T04:05:06;1.00;;;0.50;;
45842;SDS011;31563;51.744;8.252;2023-07-16T04:07:35;0.60;;;0.45;;
45842;SDS011;31563;51.744;8.252;2023-07-16T04:10:04;0.70;;;0.60;;
45842;SDS011;31563;51.744;8.252;2023-07-16T04:12:33;0.63;;;0.50;;
45842;SDS011;31563;51.744;8.252;2023-07-16T04:15:06;0.70;;;0.60;;
45842;SDS011;31563;51.744;8.252;2023-07-16T04:17:35;0.73;;;0.30;;
45842;SDS011;31563;51.744;8.252;2023-07-16T04:20:06;1.73;;;0.80;;
45842;SDS011;31563;51.744;8.252;2023-07-16T04:22:35;0.90;;;0.47;;
45842;SDS011;31563;51.744;8.252;2023-07-16T04:27:33;0.65;;;0.50;;
45842;SDS011;31563;51.744;8.252;2023-07-16T04:30:02;0.70;;;0.40;;
45842;SDS011;31563;51.744;8.252;2023-07-16T04:32:30;1.15;;;0.60;;
45842;SDS011;31563;51.744;8.252;2023-07-16T04:34:58;0.50;;;0.43;;
45842;SDS011;31563;51.744;8.252;2023-07-16T04:37:28;0.93;;;0.63;;
45842;SDS011;31563;51.744;8.252;2023-07-16T04:39:56;1.10;;;0.85;;
45842;SDS011;31563;51.744;8.252;2023-07-16T04:42:25;0.52;;;0.40;;
45842;SDS011;31563;51.744;8.252;2023-07-16T04:44:53;0.60;;;0.50;;
45842;SDS011;31563;51.744;8.252;2023-07-16T04:47:21;0.85;;;0.50;;
45842;SDS011;31563;51.744;8.252;2023-07-16T04:49:49;0.85;;;0.50;;
45842;SDS011;31563;51.744;8.252;2023-07-16T04:52:18;1.08;;;0.70;;
45842;SDS011;31563;51.744;8.252;2023-07-16T04:54:47;1.30;;;0.70;;
45842;SDS011;31563;51.744;8.252;2023-07-16T04:59:45;0.70;;;0.47;;
45842;SDS011;31563;51.744;8.252;2023-07-16T05:02:13;0.50;;;0.45;;
45842;SDS011;31563;51.744;8.252;2023-07-16T05:07:14;0.57;;;0.52;;
45842;SDS011;31563;51.744;8.252;2023-07-16T05:09:43;0.88;;;0.55;;
45842;SDS011;31563;51.744;8.252;2023-07-16T05:12:12;0.98;;;0.60;;
45842;SDS011;31563;51.744;8.252;2023-07-16T05:14:44;0.63;;;0.43;;
45842;SDS011;31563;51.744;8.252;2023-07-16T05:17:13;1.05;;;0.70;;
45842;SDS011;31563;51.744;8.252;2023-07-16T05:19:42;1.10;;;0.60;;
45842;SDS011;31563;51.744;8.252;2023-07-16T05:22:11;0.88;;;0.52;;
45842;SDS011;31563;51.744;8.252;2023-07-16T05:24:39;0.88;;;0.43;;
45842;SDS011;31563;51.744;8.252;2023-07-16T05:27:07;1.40;;;0.40;;
45842;SDS011;31563;51.744;8.252;2023-07-16T05:29:37;1.15;;;0.52;;
45842;SDS011;31563;51.744;8.252;2023-07-16T05:32:05;0.80;;;0.60;;
45842;SDS011;31563;51.744;8.252;2023-07-16T05:34:34;1.27;;;0.70;;
45842;SDS011;31563;51.744;8.252;2023-07-16T05:37:02;1.00;;;0.70;;
45842;SDS011;31563;51.744;8.252;2023-07-16T05:39:31;2.97;;;0.70;;
45842;SDS011;31563;51.744;8.252;2023-07-16T05:41:59;0.70;;;0.50;;
45842;SDS011;31563;51.744;8.252;2023-07-16T05:44:28;1.20;;;0.75;;
45842;SDS011;31563;51.744;8.252;2023-07-16T05:46:58;1.20;;;0.60;;
45842;SDS011;31563;51.744;8.252;2023-07-16T05:49:26;0.88;;;0.50;;
45842;SDS011;31563;51.744;8.252;2023-07-16T05:51:55;1.27;;;0.60;;
45842;SDS011;31563;51.744;8.252;2023-07-16T05:54:23;0.90;;;0.43;;
45842;SDS011;31563;51.744;8.252;2023-07-16T05:56:51;0.70;;;0.50;;
45842;SDS011;31563;51.744;8.252;2023-07-16T05:59:19;1.50;;;0.50;;
45842;SDS011;31563;51.744;8.252;2023-07-16T06:01:48;3.38;;;1.10;;
45842;SDS011;31563;51.744;8.252;2023-07-16T06:04:17;3.92;;;1.80;;
45842;SDS011;31563;51.744;8.252;2023-07-16T06:09:17;5.75;;;1.90;;
45842;SDS011;31563;51.744;8.252;2023-07-16T06:11:45;5.07;;;1.77;;
45842;SDS011;31563;51.744;8.252;2023-07-16T06:14:15;5.95;;;2.13;;
45842;SDS011;31563;51.744;8.252;2023-07-16T06:16:43;3.35;;;1.65;;
45842;SDS011;31563;51.744;8.252;2023-07-16T06:19:12;7.15;;;2.08;;
45842;SDS011;31563;51.744;8.252;2023-07-16T06:21:41;3.15;;;1.80;;
45842;SDS011;31563;51.744;8.252;2023-07-16T06:24:09;3.78;;;1.85;;
45842;SDS011;31563;51.744;8.252;2023-07-16T06:26:42;6.90;;;2.03;;
45842;SDS011;31563;51.744;8.252;2023-07-16T06:29:10;5.67;;;2.40;;
45842;SDS011;31563;51.744;8.252;2023-07-16T06:31:38;6.97;;;2.63;;
45842;SDS011;31563;51.744;8.252;2023-07-16T06:34:10;4.88;;;2.40;;
45842;SDS011;31563;51.744;8.252;2023-07-16T06:36:38;4.63;;;2.35;;
45842;SDS011;31563;51.744;8.252;2023-07-16T06:39:09;5.25;;;2.50;;
45842;SDS011;31563;51.744;8.252;2023-07-16T06:41:37;5.05;;;2.22;;
45842;SDS011;31563;51.744;8.252;2023-07-16T06:44:05;3.92;;;2.50;;
45842;SDS011;31563;51.744;8.252;2023-07-16T06:46:33;5.70;;;2.35;;
45842;SDS011;31563;51.744;8.252;2023-07-16T06:49:01;5.68;;;2.60;;
45842;SDS011;31563;51.744;8.252;2023-07-16T06:51:30;3.83;;;2.50;;
45842;SDS011;31563;51.744;8.252;2023-07-16T06:53:58;7.65;;;2.50;;
45842;SDS011;31563;51.744;8.252;2023-07-16T06:56:28;6.47;;;2.38;;
45842;SDS011;31563;51.744;8.252;2023-07-16T07:01:24;6.78;;;2.58;;
45842;SDS011;31563;51.744;8.252;2023-07-16T07:03:54;6.18;;;2.40;;
45842;SDS011;31563;51.744;8.252;2023-07-16T07:06:23;4.65;;;1.75;;
45842;SDS011;31563;51.744;8.252;2023-07-16T07:08:51;3.83;;;1.90;;
45842;SDS011;31563;51.744;8.252;2023-07-16T07:11:20;4.43;;;1.85;;
45842;SDS011;31563;51.744;8.252;2023-07-16T07:13:51;5.25;;;1.92;;
45842;SDS011;31563;51.744;8.252;2023-07-16T07:16:20;4.75;;;1.77;;
45842;SDS011;31563;51.744;8.252;2023-07-16T07:18:48;4.65;;;2.25;;
45842;SDS011;31563;51.744;8.252;2023-07-16T07:21:16;3.90;;;1.95;;
45842;SDS011;31563;51.744;8.252;2023-07-16T07:23:44;4.57;;;2.33;;
45842;SDS011;31563;51.744;8.252;2023-07-16T07:26:13;2.95;;;1.63;;
45842;SDS011;31563;51.744;8.252;2023-07-16T07:28:41;3.55;;;1.88;;
45842;SDS011;31563;51.744;8.252;2023-07-16T07:31:11;3.55;;;2.00;;
45842;SDS011;31563;51.744;8.252;2023-07-16T07:33:39;3.92;;;2.03;;
45842;SDS011;31563;51.744;8.252;2023-07-16T07:36:08;3.47;;;1.60;;
45842;SDS011;31563;51.744;8.252;2023-07-16T07:38:37;3.97;;;1.83;;
45842;SDS011;31563;51.744;8.252;2023-07-16T07:41:06;5.15;;;2.47;;
45842;SDS011;31563;51.744;8.252;2023-07-16T07:43:35;5.95;;;2.50;;
45842;SDS011;31563;51.744;8.252;2023-07-16T07:46:03;5.20;;;1.98;;
45842;SDS011;31563;51.744;8.252;2023-07-16T07:48:33;5.10;;;2.20;;
45842;SDS011;31563;51.744;8.252;2023-07-16T07:53:29;3.47;;;1.90;;
45842;SDS011;31563;51.744;8.252;2023-07-16T07:55:59;5.88;;;2.65;;
45842;SDS011;31563;51.744;8.252;2023-07-16T07:58:27;7.47;;;3.00;;
45842;SDS011;31563;51.744;8.252;2023-07-16T08:00:55;4.53;;;2.40;;
45842;SDS011;31563;51.744;8.252;2023-07-16T08:03:24;5.13;;;2.55;;
45842;SDS011;31563;51.744;8.252;2023-07-16T08:05:54;6.07;;;2.53;;
45842;SDS011;31563;51.744;8.252;2023-07-16T08:08:22;4.80;;;2.72;;
45842;SDS011;31563;51.744;8.252;2023-07-16T08:10:50;4.47;;;2.50;;
45842;SDS011;31563;51.744;8.252;2023-07-16T08:13:19;5.25;;;2.67;;
45842;SDS011;31563;51.744;8.252;2023-07-16T08:15:47;4.97;;;2.50;;
45842;SDS011;31563;51.744;8.252;2023-07-16T08:18:15;4.25;;;2.90;;
45842;SDS011;31563;51.744;8.252;2023-07-16T08:20:43;6.85;;;2.88;;
45842;SDS011;31563;51.744;8.252;2023-07-16T08:23:13;5.03;;;2.80;;
45842;SDS011;31563;51.744;8.252;2023-07-16T08:25:42;5.18;;;2.60;;
45842;SDS011;31563;51.744;8.252;2023-07-16T08:30:39;4.05;;;2.42;;
45842;SDS011;31563;51.744;8.252;2023-07-16T08:33:07;4.85;;;2.67;;
45842;SDS011;31563;51.744;8.252;2023-07-16T08:35:36;4.15;;;2.50;;
45842;SDS011;31563;51.744;8.252;2023-07-16T08:38:04;5.68;;;2.78;;
45842;SDS011;31563;51.744;8.252;2023-07-16T08:40:37;4.88;;;2.20;;
45842;SDS011;31563;51.744;8.252;2023-07-16T08:43:06;5.13;;;2.25;;
45842;SDS011;31563;51.744;8.252;2023-07-16T08:48:07;5.50;;;2.17;;
45842;SDS011;31563;51.744;8.252;2023-07-16T08:50:36;3.70;;;2.33;;
45842;SDS011;31563;51.744;8.252;2023-07-16T08:53:05;4.60;;;2.58;;
45842;SDS011;31563;51.744;8.252;2023-07-16T08:55:33;4.38;;;2.33;;
45842;SDS011;31563;51.744;8.252;2023-07-16T08:58:04;4.03;;;2.13;;
45842;SDS011;31563;51.744;8.252;2023-07-16T09:00:33;3.58;;;2.40;;
45842;SDS011;31563;51.744;8.252;2023-07-16T09:03:02;3.85;;;2.45;;
45842;SDS011;31563;51.744;8.252;2023-07-16T09:05:31;5.13;;;2.22;;
45842;SDS011;31563;51.744;8.252;2023-07-16T09:08:06;4.05;;;2.55;;
45842;SDS011;31563;51.744;8.252;2023-07-16T09:10:34;5.40;;;2.53;;
45842;SDS011;31563;51.744;8.252;2023-07-16T09:13:04;3.72;;;2.10;;
45842;SDS011;31563;51.744;8.252;2023-07-16T09:15:32;4.50;;;2.30;;
45842;SDS011;31563;51.744;8.252;2023-07-16T09:18:01;5.03;;;2.70;;
45842;SDS011;31563;51.744;8.252;2023-07-16T09:20:30;4.15;;;2.67;;
45842;SDS011;31563;51.744;8.252;2023-07-16T09:22:58;3.55;;;2.30;;
45842;SDS011;31563;51.744;8.252;2023-07-16T09:25:27;2.90;;;2.10;;
45842;SDS011;31563;51.744;8.252;2023-07-16T09:27:57;3.50;;;2.22;;
45842;SDS011;31563;51.744;8.252;2023-07-16T09:30:31;2.70;;;2.08;;
45842;SDS011;31563;51.744;8.252;2023-07-16T09:33:08;3.55;;;2.00;;
45842;SDS011;31563;51.744;8.252;2023-07-16T09:35:38;3.50;;;1.98;;
45842;SDS011;31563;51.744;8.252;2023-07-16T09:38:07;2.95;;;2.15;;
45842;SDS011;31563;51.744;8.252;2023-07-16T09:40:36;3.22;;;2.10;;
45842;SDS011;31563;51.744;8.252;2023-07-16T09:43:05;3.28;;;2.15;;
45842;SDS011;31563;51.744;8.252;2023-07-16T09:45:35;2.92;;;2.00;;
45842;SDS011;31563;51.744;8.252;2023-07-16T09:48:04;5.55;;;2.50;;
45842;SDS011;31563;51.744;8.252;2023-07-16T09:50:33;5.22;;;2.15;;
45842;SDS011;31563;51.744;8.252;2023-07-16T09:55:31;5.93;;;2.00;;
45842;SDS011;31563;51.744;8.252;2023-07-16T09:58:04;7.13;;;2.15;;
45842;SDS011;31563;51.744;8.252;2023-07-16T10:00:37;2.67;;;1.83;;
45842;SDS011;31563;51.744;8.252;2023-07-16T10:03:08;2.13;;;1.50;;
45842;SDS011;31563;51.744;8.252;2023-07-16T10:05:36;3.58;;;1.70;;
45842;SDS011;31563;51.744;8.252;2023-07-16T10:08:05;3.70;;;1.80;;
45842;SDS011;31563;51.744;8.252;2023-07-16T10:13:13;2.28;;;1.65;;
45842;SDS011;31563;51.744;8.252;2023-07-16T10:15:53;2.80;;;1.40;;
45842;SDS011;31563;51.744;8.252;2023-07-16T10:18:24;2.15;;;1.38;;
45842;SDS011;31563;51.744;8.252;2023-07-16T10:20:59;3.13;;;1.65;;
45842;SDS011;31563;51.744;8.252;2023-07-16T10:23:36;2.15;;;1.55;;
45842;SDS011;31563;51.744;8.252;2023-07-16T10:26:06;2.37;;;1.50;;
45842;SDS011;31563;51.744;8.252;2023-07-16T10:28:36;3.10;;;1.50;;
45842;SDS011;31563;51.744;8.252;2023-07-16T10:31:16;2.05;;;1.23;;
45842;SDS011;31563;51.744;8.252;2023-07-16T10:33:55;2.40;;;1.23;;
45842;SDS011;31563;51.744;8.252;2023-07-16T10:36:25;2.40;;;1.27;;
45842;SDS011;31563;51.744;8.252;2023-07-16T10:38:53;3.40;;;1.42;;
45842;SDS011;31563;51.744;8.252;2023-07-16T10:41:22;4.15;;;1.48;;
45842;SDS011;31563;51.744;8.252;2023-07-16T10:43:50;2.20;;;1.52;;
45842;SDS011;31563;51.744;8.252;2023-07-16T10:46:22;3.78;;;1.85;;
45842;SDS011;31563;51.744;8.252;2023-07-16T10:48:51;3.28;;;1.83;;
45842;SDS011;31563;51.744;8.252;2023-07-16T10:51:24;2.95;;;1.60;;
45842;SDS011;31563;51.744;8.252;2023-07-16T10:53:54;3.38;;;1.92;;
45842;SDS011;31563;51.744;8.252;2023-07-16T10:56:23;2.33;;;1.70;;
45842;SDS011;31563;51.744;8.252;2023-07-16T11:01:20;3.45;;;1.85;;
45842;SDS011;31563;51.744;8.252;2023-07-16T11:03:50;2.67;;;1.60;;
45842;SDS011;31563;51.744;8.252;2023-07-16T11:06:18;3.40;;;1.83;;
45842;SDS011;31563;51.744;8.252;2023-07-16T11:08:46;3.58;;;1.55;;
45842;SDS011;31563;51.744;8.252;2023-07-16T11:11:16;2.45;;;1.52;;
45842;SDS011;31563;51.744;8.252;2023-07-16T11:13:54;3.45;;;1.70;;
45842;SDS011;31563;51.744;8.252;2023-07-16T11:16:22;4.13;;;1.90;;
45842;SDS011;31563;51.744;8.252;2023-07-16T11:18:52;3.35;;;2.10;;
45842;SDS011;31563;51.744;8.252;2023-07-16T11:21:21;2.65;;;1.83;;
45842;SDS011;31563;51.744;8.252;2023-07-16T11:23:49;3.22;;;1.83;;
45842;SDS011;31563;51.744;8.252;2023-07-16T11:26:17;3.88;;;1.60;;
45842;SDS011;31563;51.744;8.252;2023-07-16T11:31:17;4.45;;;1.85;;
45842;SDS011;31563;51.744;8.252;2023-07-16T11:33:49;4.93;;;1.77;;
45842;SDS011;31563;51.744;8.252;2023-07-16T11:36:18;4.10;;;1.95;;
45842;SDS011;31563;51.744;8.252;2023-07-16T11:38:48;3.00;;;1.98;;
45842;SDS011;31563;51.744;8.252;2023-07-16T11:41:19;2.40;;;1.90;;
45842;SDS011;31563;51.744;8.252;2023-07-16T11:43:48;4.47;;;2.25;;
45842;SDS011;31563;51.744;8.252;2023-07-16T11:46:17;5.13;;;2.33;;
45842;SDS011;31563;51.744;8.252;2023-07-16T11:48:46;4.13;;;2.38;;
45842;SDS011;31563;51.744;8.252;2023-07-16T11:51:14;4.57;;;2.20;;
45842;SDS011;31563;51.744;8.252;2023-07-16T11:53:43;4.30;;;2.33;;
45842;SDS011;31563;51.744;8.252;2023-07-16T11:56:12;4.32;;;2.10;;
45842;SDS011;31563;51.744;8.252;2023-07-16T11:58:40;2.72;;;2.08;;
45842;SDS011;31563;51.744;8.252;2023-07-16T12:01:09;4.63;;;2.03;;
45842;SDS011;31563;51.744;8.252;2023-07-16T12:03:38;4.10;;;2.28;;
45842;SDS011;31563;51.744;8.252;2023-07-16T12:06:06;3.60;;;2.45;;
45842;SDS011;31563;51.744;8.252;2023-07-16T12:08:35;6.57;;;2.40;;
45842;SDS011;31563;51.744;8.252;2023-07-16T12:11:05;2.78;;;1.85;;
45842;SDS011;31563;51.744;8.252;2023-07-16T12:13:33;4.10;;;2.15;;
45842;SDS011;31563;51.744;8.252;2023-07-16T12:16:01;5.38;;;2.20;;
45842;SDS011;31563;51.744;8.252;2023-07-16T12:18:30;3.05;;;2.05;;
45842;SDS011;31563;51.744;8.252;2023-07-16T12:20:58;2.67;;;2.17;;
45842;SDS011;31563;51.744;8.252;2023-07-16T12:23:29;3.17;;;2.10;;
45842;SDS011;31563;51.744;8.252;2023-07-16T12:25:58;4.20;;;1.95;;
45842;SDS011;31563;51.744;8.252;2023-07-16T12:28:27;3.05;;;1.67;;
45842;SDS011;31563;51.744;8.252;2023-07-16T12:30:55;3.50;;;1.92;;
45842;SDS011;31563;51.744;8.252;2023-07-16T12:33:24;2.58;;;1.50;;
45842;SDS011;31563;51.744;8.252;2023-07-16T12:38:21;3.78;;;1.70;;
45842;SDS011;31563;51.744;8.252;2023-07-16T12:40:50;2.95;;;2.17;;
45842;SDS011;31563;51.744;8.252;2023-07-16T12:43:18;3.40;;;1.67;;
45842;SDS011;31563;51.744;8.252;2023-07-16T12:45:47;1.98;;;1.50;;
45842;SDS011;31563;51.744;8.252;2023-07-16T12:48:16;2.92;;;1.52;;
45842;SDS011;31563;51.744;8.252;2023-07-16T12:50:44;2.47;;;1.70;;
45842;SDS011;31563;51.744;8.252;2023-07-16T12:55:40;2.90;;;1.50;;
45842;SDS011;31563;51.744;8.252;2023-07-16T13:00:37;3.53;;;1.53;;
45842;SDS011;31563;51.744;8.252;2023-07-16T13:03:06;4.13;;;1.50;;
45842;SDS011;31563;51.744;8.252;2023-07-16T13:05:38;2.53;;;1.60;;
45842;SDS011;31563;51.744;8.252;2023-07-16T13:08:06;2.25;;;1.48;;
45842;SDS011;31563;51.744;8.252;2023-07-16T13:10:34;3.63;;;1.38;;
45842;SDS011;31563;51.744;8.252;2023-07-16T13:13:03;2.70;;;1.63;;
45842;SDS011;31563;51.744;8.252;2023-07-16T13:15:32;2.03;;;1.50;;
45842;SDS011;31563;51.744;8.252;2023-07-16T13:18:00;3.05;;;1.55;;
45842;SDS011;31563;51.744;8.252;2023-07-16T13:20:30;2.67;;;1.50;;
45842;SDS011;31563;51.744;8.252;2023-07-16T13:22:59;2.28;;;1.30;;
45842;SDS011;31563;51.744;8.252;2023-07-16T13:25:27;2.08;;;1.40;;
45842;SDS011;31563;51.744;8.252;2023-07-16T13:27:56;3.33;;;1.33;;
45842;SDS011;31563;51.744;8.252;2023-07-16T13:32:53;4.63;;;2.08;;
45842;SDS011;31563;51.744;8.252;2023-07-16T13:35:22;2.78;;;1.80;;
45842;SDS011;31563;51.744;8.252;2023-07-16T13:40:20;3.15;;;1.67;;
45842;SDS011;31563;51.744;8.252;2023-07-16T13:42:48;2.30;;;1.60;;
45842;SDS011;31563;51.744;8.252;2023-07-16T13:45:17;2.63;;;1.80;;
45842;SDS011;31563;51.744;8.252;2023-07-16T13:50:14;4.05;;;1.77;;
45842;SDS011;31563;51.744;8.252;2023-07-16T13:52:42;7.50;;;3.05;;
45842;SDS011;31563;51.744;8.252;2023-07-16T13:55:12;4.05;;;2.08;;
45842;SDS011;31563;51.744;8.252;2023-07-16T13:57:40;3.10;;;1.70;;
45842;SDS011;31563;51.744;8.252;2023-07-16T14:00:09;3.15;;;1.70;;
45842;SDS011;31563;51.744;8.252;2023-07-16T14:02:39;3.50;;;2.00;;
45842;SDS011;31563;51.744;8.252;2023-07-16T14:05:07;2.63;;;1.65;;
45842;SDS011;31563;51.744;8.252;2023-07-16T14:07:35;3.30;;;1.58;;
45842;SDS011;31563;51.744;8.252;2023-07-16T14:10:04;2.42;;;1.63;;
45842;SDS011;31563;51.744;8.252;2023-07-16T14:12:34;3.03;;;1.60;;
45842;SDS011;31563;51.744;8.252;2023-07-16T14:15:03;3.88;;;1.85;;
45842;SDS011;31563;51.744;8.252;2023-07-16T14:17:32;2.72;;;1.58;;
45842;SDS011;31563;51.744;8.252;2023-07-16T14:20:00;2.75;;;1.85;;
45842;SDS011;31563;51.744;8.252;2023-07-16T14:22:30;4.03;;;2.03;;
45842;SDS011;31563;51.744;8.252;2023-07-16T14:24:58;2.30;;;1.67;;
45842;SDS011;31563;51.744;8.252;2023-07-16T14:27:26;2.60;;;1.85;;
45842;SDS011;31563;51.744;8.252;2023-07-16T14:29:56;2.90;;;1.70;;
45842;SDS011;31563;51.744;8.252;2023-07-16T14:32:32;2.57;;;1.57;;
45842;SDS011;31563;51.744;8.252;2023-07-16T14:35:01;4.60;;;1.80;;
45842;SDS011;31563;51.744;8.252;2023-07-16T14:37:30;4.43;;;1.83;;
45842;SDS011;31563;51.744;8.252;2023-07-16T14:39:58;3.00;;;1.80;;
45842;SDS011;31563;51.744;8.252;2023-07-16T14:42:26;4.03;;;1.55;;
45842;SDS011;31563;51.744;8.252;2023-07-16T14:44:56;4.00;;;1.73;;
45842;SDS011;31563;51.744;8.252;2023-07-16T14:47:24;3.22;;;1.65;;
45842;SDS011;31563;51.744;8.252;2023-07-16T14:49:52;3.08;;;1.77;;
45842;SDS011;31563;51.744;8.252;2023-07-16T14:52:21;3.85;;;2.00;;
45842;SDS011;31563;51.744;8.252;2023-07-16T14:54:49;4.47;;;1.60;;
45842;SDS011;31563;51.744;8.252;2023-07-16T14:57:17;3.03;;;1.80;;
45842;SDS011;31563;51.744;8.252;2023-07-16T14:59:45;3.05;;;1.50;;
45842;SDS011;31563;51.744;8.252;2023-07-16T15:02:15;3.95;;;1.83;;
45842;SDS011;31563;51.744;8.252;2023-07-16T15:04:43;3.40;;;1.95;;
45842;SDS011;31563;51.744;8.252;2023-07-16T15:07:11;2.38;;;1.77;;
45842;SDS011;31563;51.744;8.252;2023-07-16T15:09:40;3.10;;;1.58;;
45842;SDS011;31563;51.744;8.252;2023-07-16T15:12:08;3.80;;;1.95;;
45842;SDS011;31563;51.744;8.252;2023-07-16T15:14:36;3.58;;;1.70;;
45842;SDS011;31563;51.744;8.252;2023-07-16T15:17:05;2.67;;;1.80;;
45842;SDS011;31563;51.744;8.252;2023-07-16T15:19:35;2.75;;;1.58;;
45842;SDS011;31563;51.744;8.252;2023-07-16T15:22:03;2.33;;;1.77;;
45842;SDS011;31563;51.744;8.252;2023-07-16T15:24:35;4.07;;;2.30;;
45842;SDS011;31563;51.744;8.252;2023-07-16T15:27:03;2.50;;;1.73;;
45842;SDS011;31563;51.744;8.252;2023-07-16T15:32:00;3.03;;;1.80;;
45842;SDS011;31563;51.744;8.252;2023-07-16T15:34:28;3.40;;;1.77;;
45842;SDS011;31563;51.744;8.252;2023-07-16T15:36:58;2.20;;;1.67;;
45842;SDS011;31563;51.744;8.252;2023-07-16T15:39:26;3.15;;;1.80;;
45842;SDS011;31563;51.744;8.252;2023-07-16T15:41:54;3.10;;;2.10;;
45842;SDS011;31563;51.744;8.252;2023-07-16T15:44:22;3.80;;;1.90;;
45842;SDS011;31563;51.744;8.252;2023-07-16T15:46:50;4.10;;;2.25;;
45842;SDS011;31563;51.744;8.252;2023-07-16T15:49:19;3.13;;;1.85;;
45842;SDS011;31563;51.744;8.252;2023-07-16T15:51:47;4.50;;;2.30;;
45842;SDS011;31563;51.744;8.252;2023-07-16T15:54:16;4.40;;;2.30;;
45842;SDS011;31563;51.744;8.252;2023-07-16T15:56:45;4.70;;;2.25;;
45842;SDS011;31563;51.744;8.252;2023-07-16T15:59:13;3.05;;;2.30;;
45842;SDS011;31563;51.744;8.252;2023-07-16T16:01:42;3.00;;;1.73;;
45842;SDS011;31563;51.744;8.252;2023-07-16T16:04:10;5.05;;;2.22;;
45842;SDS011;31563;51.744;8.252;2023-07-16T16:06:38;4.23;;;2.10;;